createdAt,value
2023-05-22T00:00:26.763Z,99790.63
2023-05-22T00:03:10.862Z,99789.19
2023-05-22T00:05:58.991Z,99796.28
2023-05-22T00:08:43.099Z,99780.22
2023-05-22T00:11:27.112Z,99799.03
2023-05-22T00:14:10.996Z,99792.53
2023-05-22T00:16:55.733Z,99787.31
2023-05-22T00:19:39.850Z,99775.97
2023-05-22T00:22:25.140Z,99799.16
2023-05-22T00:25:10.411Z,99785.56
2023-05-22T00:27:54.378Z,99776.41
2023-05-22T00:30:39.090Z,99777.41
2023-05-22T00:33:23.158Z,99767.84
2023-05-22T00:36:07.470Z,99787.38
2023-05-22T00:38:52.594Z,99761.19
2023-05-22T00:41:36.884Z,99788.22
2023-05-22T00:44:20.773Z,99781.78
2023-05-22T00:47:04.763Z,99778.66
2023-05-22T00:49:48.649Z,99759.78
2023-05-22T00:52:33.080Z,99782.53
2023-05-22T00:55:18.590Z,99790.50
2023-05-22T00:58:07.715Z,99764.50
2023-05-22T01:00:52.430Z,99776.72
2023-05-22T01:03:37.604Z,99796.09
2023-05-22T01:06:22.648Z,99782.75
2023-05-22T01:09:06.580Z,99784.13
2023-05-22T01:12:00.543Z,99777.19
2023-05-22T01:14:53.858Z,99781.09
2023-05-22T01:17:46.460Z,99783.63
2023-05-22T01:20:37.418Z,99773.47
2023-05-22T01:23:44.537Z,99775.84
2023-05-22T01:27:03.883Z,99767.50
2023-05-22T01:29:57.159Z,99773.44
2023-05-22T01:32:45.132Z,99783.66
2023-05-22T01:35:31.135Z,99782.94
2023-05-22T01:38:15.984Z,99781.25
2023-05-22T01:41:00.036Z,99783.41
2023-05-22T01:43:44.339Z,99770.63
2023-05-22T01:46:28.911Z,99683.63
2023-05-22T01:49:14.682Z,99792.00
2023-05-22T01:52:04.971Z,99792.97
2023-05-22T01:54:55.706Z,99794.88
2023-05-22T01:57:46.447Z,99807.34
2023-05-22T02:00:33.584Z,99772.22
2023-05-22T02:03:20.797Z,99812.63
2023-05-22T02:06:14.400Z,99797.06
2023-05-22T02:08:58.777Z,99780.72
2023-05-22T02:11:43.750Z,99789.47
2023-05-22T02:14:29.125Z,99751.38
2023-05-22T02:17:13.308Z,99777.16
2023-05-22T02:19:57.370Z,99788.16
2023-05-22T02:22:44.571Z,99773.88
2023-05-22T02:25:28.946Z,99805.25
2023-05-22T02:28:13.064Z,99788.66
2023-05-22T02:30:57.152Z,99805.53
2023-05-22T02:33:41.179Z,99799.50
2023-05-22T02:36:26.304Z,99778.28
2023-05-22T02:39:11.999Z,99790.97
2023-05-22T02:41:56.380Z,99768.13
2023-05-22T02:44:40.506Z,99771.91
2023-05-22T02:47:24.396Z,99785.00
2023-05-22T02:50:09.297Z,99784.25
2023-05-22T02:52:53.535Z,99791.53
2023-05-22T02:55:38.946Z,99794.41
2023-05-22T02:58:23.443Z,99784.47
2023-05-22T03:01:09.209Z,99789.78
2023-05-22T03:03:55.094Z,99787.78
2023-05-22T03:06:39.317Z,99799.50
2023-05-22T03:09:23.456Z,99798.19
2023-05-22T03:12:10.654Z,99798.81
2023-05-22T03:14:54.574Z,99796.84
2023-05-22T03:17:38.903Z,99796.69
2023-05-22T03:20:23.048Z,99799.72
2023-05-22T03:23:07.083Z,99802.06
2023-05-22T03:25:51.319Z,99795.75
2023-05-22T03:28:37.176Z,99804.22
2023-05-22T03:31:21.509Z,99807.59
2023-05-22T03:34:17.923Z,99774.38
2023-05-22T03:37:04.714Z,99814.47
2023-05-22T03:39:48.681Z,99803.22
2023-05-22T03:42:41.759Z,99804.66
2023-05-22T03:45:27.068Z,99768.03
2023-05-22T03:48:12.545Z,99799.50
2023-05-22T03:50:56.995Z,99792.19
2023-05-22T03:53:40.897Z,99786.63
2023-05-22T03:56:24.957Z,99805.03
2023-05-22T03:59:09.047Z,99796.88
2023-05-22T04:01:54.355Z,99796.69
2023-05-22T04:04:39.162Z,99801.81
2023-05-22T04:07:23.120Z,99797.50
2023-05-22T04:10:07.996Z,99794.38
2023-05-22T04:12:52.053Z,99796.53
2023-05-22T04:15:36.715Z,99792.56
2023-05-22T04:18:22.267Z,99810.84
2023-05-22T04:21:09.930Z,99800.44
2023-05-22T04:23:53.883Z,99814.00
2023-05-22T04:26:39.984Z,99797.03
2023-05-22T04:29:25.718Z,99802.34
2023-05-22T04:32:10.794Z,99802.47
2023-05-22T04:34:58.525Z,99800.31
2023-05-22T04:37:45.631Z,99796.88
2023-05-22T04:40:30.532Z,99771.81
2023-05-22T04:43:14.369Z,99799.09
2023-05-22T04:45:58.299Z,99799.59
2023-05-22T04:48:42.366Z,99799.25
2023-05-22T04:51:27.730Z,99802.63
2023-05-22T04:54:11.754Z,99804.06
2023-05-22T04:56:56.765Z,99799.25
2023-05-22T04:59:41.655Z,99811.44
2023-05-22T05:02:26.331Z,99790.16
2023-05-22T05:05:10.848Z,99797.75
2023-05-22T05:07:56.777Z,99798.88
2023-05-22T05:10:41.153Z,99812.03
2023-05-22T05:13:25.268Z,99804.84
2023-05-22T05:16:09.589Z,99797.19
2023-05-22T05:18:55.682Z,99807.47
2023-05-22T05:21:40.086Z,99811.72
2023-05-22T05:24:25.600Z,99809.25
2023-05-22T05:27:09.612Z,99805.50
2023-05-22T05:29:54.449Z,99798.28
2023-05-22T05:32:49.699Z,99809.16
2023-05-22T05:35:43.090Z,99809.06
2023-05-22T05:38:29.446Z,99813.28
2023-05-22T05:41:15.392Z,99803.16
2023-05-22T05:44:01.528Z,99806.53
2023-05-22T05:46:48.753Z,99791.03
2023-05-22T05:49:35.950Z,99810.59
2023-05-22T05:52:21.119Z,99810.47
2023-05-22T05:55:06.445Z,99807.88
2023-05-22T05:57:52.128Z,99801.69
2023-05-22T06:00:43.451Z,99796.75
2023-05-22T06:03:27.646Z,99797.94
2023-05-22T06:06:26.222Z,99811.88
2023-05-22T06:09:33.474Z,99809.72
2023-05-22T06:12:24.849Z,99822.31
2023-05-22T06:15:13.151Z,99824.25
2023-05-22T06:17:57.576Z,99818.50
2023-05-22T06:20:41.927Z,99822.09
2023-05-22T06:23:26.485Z,99832.09
2023-05-22T06:26:12.298Z,99828.13
2023-05-22T06:28:58.172Z,99833.47
2023-05-22T06:31:44.316Z,99830.53
2023-05-22T06:34:29.876Z,99832.06
2023-05-22T06:37:16.185Z,99833.13
2023-05-22T06:40:02.141Z,99795.66
2023-05-22T06:42:59.036Z,99829.88
2023-05-22T06:45:46.207Z,99834.50
2023-05-22T06:48:37.646Z,99802.44
2023-05-22T06:51:29.580Z,99822.59
2023-05-22T06:54:21.533Z,99826.25
2023-05-22T06:57:11.050Z,99797.78
2023-05-22T06:59:55.009Z,99820.78
2023-05-22T07:02:57.466Z,99793.31
2023-05-22T07:05:48.484Z,99826.63
2023-05-22T07:08:32.508Z,99825.66
2023-05-22T07:11:17.382Z,99824.63
2023-05-22T07:14:02.434Z,99833.41
2023-05-22T07:16:46.610Z,99835.88
2023-05-22T07:19:36.710Z,99832.53
2023-05-22T07:22:23.425Z,99823.81
2023-05-22T07:25:08.796Z,99815.38
2023-05-22T07:27:52.966Z,99814.19
2023-05-22T07:30:39.936Z,99802.72
2023-05-22T07:33:24.257Z,99811.25
2023-05-22T07:36:09.766Z,99808.97
2023-05-22T07:38:57.562Z,99794.78
2023-05-22T07:41:42.273Z,99793.97
2023-05-22T07:44:29.827Z,99804.06
2023-05-22T07:47:13.753Z,99804.38
2023-05-22T07:49:58.498Z,99785.06
2023-05-22T07:52:42.745Z,99797.88
2023-05-22T07:55:28.471Z,99785.53
2023-05-22T07:58:12.551Z,99790.41
2023-05-22T08:00:59.376Z,99787.53
2023-05-22T08:03:43.712Z,99790.44
2023-05-22T08:06:28.152Z,99775.50
2023-05-22T08:09:11.980Z,99765.34
2023-05-22T08:11:57.540Z,99787.38
2023-05-22T08:14:41.446Z,99789.00
2023-05-22T08:17:25.499Z,99779.50
2023-05-22T08:20:11.768Z,99784.53
2023-05-22T08:22:55.959Z,99764.16
2023-05-22T08:25:39.908Z,99782.53
2023-05-22T08:28:25.524Z,99772.94
2023-05-22T08:31:09.565Z,99788.81
2023-05-22T08:33:53.684Z,99791.31
2023-05-22T08:36:37.748Z,99793.06
2023-05-22T08:39:21.804Z,99764.34
2023-05-22T08:42:07.055Z,99795.28
2023-05-22T08:44:52.493Z,99780.38
2023-05-22T08:47:37.889Z,99784.19
2023-05-22T08:50:22.504Z,99786.25
2023-05-22T08:53:09.487Z,99784.13
2023-05-22T08:55:54.730Z,99785.59
2023-05-22T08:58:39.441Z,99783.97
2023-05-22T09:01:25.506Z,99788.63
2023-05-22T09:04:09.784Z,99786.38
2023-05-22T09:06:55.271Z,99773.06
2023-05-22T09:09:39.803Z,99769.09
2023-05-22T09:12:23.784Z,99777.00
2023-05-22T09:15:12.271Z,99784.50
2023-05-22T09:17:57.979Z,99762.97
2023-05-22T09:20:42.246Z,99766.78
2023-05-22T09:23:29.020Z,99746.63
2023-05-22T09:26:12.996Z,99766.66
2023-05-22T09:28:57.262Z,99756.41
2023-05-22T09:31:45.136Z,99781.47
2023-05-22T09:34:33.614Z,99769.09
2023-05-22T09:37:18.675Z,99765.88
2023-05-22T09:40:07.297Z,99758.59
2023-05-22T09:42:51.398Z,99752.84
2023-05-22T09:45:36.617Z,99755.97
2023-05-22T09:48:21.557Z,99750.44
2023-05-22T09:51:08.773Z,99750.78
2023-05-22T09:53:56.382Z,99753.59
2023-05-22T09:56:42.140Z,99761.63
2023-05-22T09:59:30.556Z,99723.50
2023-05-22T10:02:15.010Z,99750.91
2023-05-22T10:05:01.132Z,99756.81
2023-05-22T10:07:50.107Z,99755.75
2023-05-22T10:10:35.798Z,99750.34
2023-05-22T10:13:21.026Z,99767.41
2023-05-22T10:16:07.827Z,99753.06
2023-05-22T10:18:52.657Z,99756.34
2023-05-22T10:21:38.040Z,99749.88
2023-05-22T10:24:25.209Z,99755.75
2023-05-22T10:27:09.146Z,99749.28
2023-05-22T10:29:59.323Z,99762.00
2023-05-22T10:32:54.791Z,99749.97
2023-05-22T10:35:45.891Z,99746.63
2023-05-22T10:39:04.384Z,99747.22
2023-05-22T10:41:50.034Z,99748.50
2023-05-22T10:44:35.065Z,99746.91
2023-05-22T10:47:19.563Z,99728.72
2023-05-22T10:50:10.085Z,99748.66
2023-05-22T10:53:22.021Z,99747.06
2023-05-22T10:56:13.774Z,99750.88
2023-05-22T10:59:02.826Z,99750.53
2023-05-22T11:01:47.032Z,99746.66
2023-05-22T11:04:36.285Z,99749.66
2023-05-22T11:07:20.337Z,99753.91
2023-05-22T11:10:04.825Z,99742.28
2023-05-22T11:12:49.081Z,99737.38
2023-05-22T11:15:34.808Z,99739.84
2023-05-22T11:18:19.362Z,99716.53
2023-05-22T11:21:04.881Z,99745.28
2023-05-22T11:23:48.992Z,99718.81
2023-05-22T11:26:33.326Z,99745.97
2023-05-22T11:29:17.741Z,99735.72
2023-05-22T11:32:03.593Z,99732.25
2023-05-22T11:34:50.224Z,99740.66
2023-05-22T11:37:34.405Z,99751.22
2023-05-22T11:40:21.120Z,99753.13
2023-05-22T11:43:05.504Z,99772.25
2023-05-22T11:45:49.780Z,99761.88
2023-05-22T11:48:35.913Z,99733.38
2023-05-22T11:51:21.230Z,99754.06
2023-05-22T11:54:06.576Z,99744.28
2023-05-22T11:56:50.965Z,99749.34
2023-05-22T11:59:35.266Z,99754.97
2023-05-22T12:02:19.950Z,99768.75
2023-05-22T12:05:05.927Z,99772.47
2023-05-22T12:07:50.367Z,99771.63
2023-05-22T12:10:34.885Z,99777.88
2023-05-22T12:13:25.638Z,99761.34
2023-05-22T12:16:22.063Z,99761.31
2023-05-22T12:19:07.682Z,99766.03
2023-05-22T12:21:54.065Z,99762.00
2023-05-22T12:24:42.105Z,99750.16
2023-05-22T12:27:26.253Z,99761.00
2023-05-22T12:30:12.073Z,99733.78
2023-05-22T12:32:58.151Z,99765.94
2023-05-22T12:35:43.453Z,99773.81
2023-05-22T12:38:29.760Z,99782.06
2023-05-22T12:41:14.367Z,99789.31
2023-05-22T12:43:58.734Z,99780.88
2023-05-22T12:46:43.304Z,99767.31
2023-05-22T12:49:27.704Z,99772.66
2023-05-22T12:52:12.280Z,99768.59
2023-05-22T12:54:57.940Z,99764.00
2023-05-22T12:57:42.220Z,99757.00
2023-05-22T13:00:26.545Z,99751.19
2023-05-22T13:03:12.447Z,99758.94
2023-05-22T13:05:56.757Z,99761.38
2023-05-22T13:08:41.038Z,99761.66
2023-05-22T13:11:27.401Z,99766.41
2023-05-22T13:14:12.352Z,99763.91
2023-05-22T13:16:57.367Z,99771.31
2023-05-22T13:19:42.427Z,99783.75
2023-05-22T13:22:27.655Z,99770.41
2023-05-22T13:25:14.159Z,99761.72
2023-05-22T13:28:04.553Z,99782.66
2023-05-22T13:30:49.185Z,99773.22
2023-05-22T13:33:33.515Z,99784.56
2023-05-22T13:36:18.800Z,99754.22
2023-05-22T13:39:03.220Z,99794.94
2023-05-22T13:41:47.765Z,99800.09
2023-05-22T13:44:33.621Z,99792.88
2023-05-22T13:47:18.129Z,99784.41
2023-05-22T13:50:02.879Z,99795.19
2023-05-22T13:52:49.538Z,99770.75
2023-05-22T13:55:33.748Z,99791.13
2023-05-22T13:58:17.870Z,99768.88
2023-05-22T14:01:03.391Z,99777.97
2023-05-22T14:03:47.624Z,99768.63
2023-05-22T14:06:31.918Z,99785.31
2023-05-22T14:09:15.981Z,99786.66
2023-05-22T14:11:59.850Z,99769.47
2023-05-22T14:14:43.844Z,99765.91
2023-05-22T14:17:29.235Z,99769.53
2023-05-22T14:20:13.170Z,99766.19
2023-05-22T14:22:58.455Z,99741.41
2023-05-22T14:25:43.418Z,99756.69
2023-05-22T14:28:27.360Z,99755.84
2023-05-22T14:31:12.757Z,99759.63
2023-05-22T14:33:58.162Z,99751.34
2023-05-22T14:36:42.169Z,99753.97
2023-05-22T14:39:26.313Z,99757.06
2023-05-22T14:42:10.352Z,99755.47
2023-05-22T14:44:54.324Z,99755.81
2023-05-22T14:47:38.335Z,99754.84
2023-05-22T14:50:23.813Z,99746.06
2023-05-22T14:53:07.869Z,99724.88
2023-05-22T14:55:51.937Z,99737.81
2023-05-22T14:58:36.108Z,99730.19
2023-05-22T15:01:20.623Z,99733.22
2023-05-22T15:04:04.887Z,99736.66
2023-05-22T15:06:50.177Z,99733.41
2023-05-22T15:09:34.333Z,99727.13
2023-05-22T15:12:18.382Z,99724.44
2023-05-22T15:15:03.058Z,99712.69
2023-05-22T15:17:50.139Z,99706.47
2023-05-22T15:20:35.019Z,99707.28
2023-05-22T15:23:25.321Z,99704.59
2023-05-22T15:26:09.621Z,99708.91
2023-05-22T15:28:53.792Z,99711.53
2023-05-22T15:31:37.824Z,99704.28
2023-05-22T15:34:21.804Z,99723.13
2023-05-22T15:37:06.104Z,99725.81
2023-05-22T15:39:51.644Z,99724.31
2023-05-22T15:42:36.209Z,99733.44
2023-05-22T15:45:20.618Z,99719.81
2023-05-22T15:48:06.093Z,99719.16
2023-05-22T15:50:50.178Z,99714.44
2023-05-22T15:53:34.597Z,99721.88
2023-05-22T15:56:20.329Z,99718.25
2023-05-22T15:59:04.574Z,99722.44
2023-05-22T16:01:48.668Z,99714.75
2023-05-22T16:04:33.102Z,99723.66
2023-05-22T16:07:19.234Z,99719.13
2023-05-22T16:10:04.033Z,99722.97
2023-05-22T16:12:50.502Z,99722.66
2023-05-22T16:15:35.314Z,99722.59
2023-05-22T16:18:21.725Z,99718.66
2023-05-22T16:21:06.837Z,99721.00
2023-05-22T16:23:51.336Z,99712.22
2023-05-22T16:26:37.946Z,99720.78
2023-05-22T16:29:24.076Z,99720.59
2023-05-22T16:32:08.694Z,99716.16
2023-05-22T16:34:52.937Z,99721.97
2023-05-22T16:37:37.371Z,99736.13
2023-05-22T16:40:21.634Z,99736.78
2023-05-22T16:43:06.154Z,99738.66
2023-05-22T16:45:52.521Z,99735.97
2023-05-22T16:48:37.092Z,99745.69
2023-05-22T16:51:21.331Z,99720.25
2023-05-22T16:54:06.155Z,99742.13
2023-05-22T16:56:50.666Z,99746.16
2023-05-22T16:59:34.907Z,99757.53
2023-05-22T17:02:20.839Z,99761.78
2023-05-22T17:05:05.499Z,99745.41
2023-05-22T17:07:50.384Z,99755.22
2023-05-22T17:10:34.872Z,99761.28
2023-05-22T17:13:21.242Z,99757.16
2023-05-22T17:16:06.262Z,99765.63
2023-05-22T17:18:54.852Z,99733.78
2023-05-22T17:21:39.890Z,99730.13
2023-05-22T17:24:24.347Z,99724.50
2023-05-22T17:27:09.049Z,99758.13
2023-05-22T17:29:53.671Z,99721.66
2023-05-22T17:32:37.990Z,99758.03
2023-05-22T17:35:24.062Z,99767.81
2023-05-22T17:38:08.932Z,99773.88
2023-05-22T17:40:53.693Z,99750.75
2023-05-22T17:43:39.698Z,99763.75
2023-05-22T17:46:24.316Z,99773.25
2023-05-22T17:49:08.502Z,99783.69
2023-05-22T17:51:54.597Z,99777.53
2023-05-22T17:54:38.775Z,99778.38
2023-05-22T17:57:23.359Z,99787.97
2023-05-22T18:00:11.924Z,99790.19
2023-05-22T18:02:56.917Z,99790.19
2023-05-22T18:05:41.768Z,99791.84
2023-05-22T18:08:27.334Z,99793.16
2023-05-22T18:11:12.058Z,99802.59
2023-05-22T18:13:58.456Z,99777.38
2023-05-22T18:16:42.667Z,99805.59
2023-05-22T18:19:26.755Z,99803.97
2023-05-22T18:22:10.810Z,99810.16
2023-05-22T18:24:56.334Z,99795.22
2023-05-22T18:27:40.310Z,99820.28
2023-05-22T18:30:24.313Z,99828.38
2023-05-22T18:33:08.338Z,99834.50
2023-05-22T18:35:52.752Z,99833.06
2023-05-22T18:38:36.525Z,99773.88
2023-05-22T18:41:22.116Z,99804.13
2023-05-22T18:44:07.712Z,99839.53
2023-05-22T18:46:51.692Z,99846.13
2023-05-22T18:49:35.633Z,99849.53
2023-05-22T18:52:19.581Z,99851.28
2023-05-22T18:55:03.764Z,99716.97
2023-05-22T18:57:49.330Z,99842.19
2023-05-22T19:00:33.198Z,99849.56
2023-05-22T19:03:17.303Z,99822.69
2023-05-22T19:06:01.557Z,99858.78
2023-05-22T19:08:45.763Z,99853.66
2023-05-22T19:11:29.756Z,99875.00
2023-05-22T19:14:14.971Z,99861.56
2023-05-22T19:17:00.560Z,99862.63
2023-05-22T19:19:44.950Z,99856.94
2023-05-22T19:22:28.890Z,99860.34
2023-05-22T19:25:12.784Z,99861.81
2023-05-22T19:27:56.859Z,99859.00
2023-05-22T19:30:42.642Z,99864.50
2023-05-22T19:33:27.708Z,99862.41
2023-05-22T19:36:11.732Z,99867.09
2023-05-22T19:38:55.723Z,99853.06
2023-05-22T19:41:39.775Z,99825.84
2023-05-22T19:44:23.756Z,99865.28
2023-05-22T19:47:09.337Z,99868.94
2023-05-22T19:49:53.331Z,99862.13
2023-05-22T19:52:37.373Z,99849.66
2023-05-22T19:55:21.454Z,99869.16
2023-05-22T19:58:05.364Z,99874.59
2023-05-22T20:00:49.509Z,99835.97
2023-05-22T20:03:35.727Z,99857.03
2023-05-22T20:06:20.057Z,99863.25
2023-05-22T20:09:05.868Z,99834.19
2023-05-22T20:11:49.878Z,99868.94
2023-05-22T20:14:34.204Z,99865.56
2023-05-22T20:17:22.476Z,99860.47
2023-05-22T20:20:09.449Z,99863.41
2023-05-22T20:22:54.045Z,99840.34
2023-05-22T20:25:38.074Z,99857.16
2023-05-22T20:28:22.250Z,99839.66
2023-05-22T20:31:06.293Z,99844.72
2023-05-22T20:33:50.246Z,99845.69
2023-05-22T20:36:35.875Z,99830.34
2023-05-22T20:39:19.761Z,99829.25
2023-05-22T20:42:03.840Z,99830.66
2023-05-22T20:44:48.043Z,99821.84
2023-05-22T20:47:32.015Z,99734.41
2023-05-22T20:50:16.055Z,99819.16
2023-05-22T20:53:01.433Z,99812.53
2023-05-22T20:55:45.276Z,99819.03
2023-05-22T20:58:29.109Z,99813.50
2023-05-22T21:01:13.041Z,99817.88
2023-05-22T21:03:57.385Z,99809.41
2023-05-22T21:06:41.167Z,99811.56
2023-05-22T21:09:26.576Z,99809.59
2023-05-22T21:12:10.570Z,99805.69
2023-05-22T21:14:54.504Z,99795.13
2023-05-22T21:17:38.675Z,99793.81
2023-05-22T21:20:22.691Z,99792.31
2023-05-22T21:23:06.667Z,99792.81
2023-05-22T21:25:52.123Z,99785.63
2023-05-22T21:28:35.987Z,99783.72
2023-05-22T21:31:19.947Z,99784.94
2023-05-22T21:34:04.017Z,99789.81
2023-05-22T21:36:48.108Z,99715.75
2023-05-22T21:39:31.935Z,99763.38
2023-05-22T21:42:17.768Z,99785.19
2023-05-22T21:45:01.695Z,99761.44
2023-05-22T21:47:49.148Z,99790.25
2023-05-22T21:50:33.087Z,99651.44
2023-05-22T21:53:17.011Z,99768.94
2023-05-22T21:56:01.091Z,99768.47
2023-05-22T21:58:46.370Z,99761.69
2023-05-22T22:01:30.366Z,99740.38
2023-05-22T22:04:14.282Z,99754.41
2023-05-22T22:06:58.070Z,99690.13
2023-05-22T22:09:42.059Z,99762.25
2023-05-22T22:12:25.968Z,99751.03
2023-05-22T22:15:13.265Z,99740.88
2023-05-22T22:17:59.495Z,99756.59
2023-05-22T22:20:45.409Z,99755.41
2023-05-22T22:23:29.958Z,99763.50
2023-05-22T22:26:13.906Z,99769.44
2023-05-22T22:28:57.935Z,99761.31
2023-05-22T22:31:43.301Z,99754.88
2023-05-22T22:34:27.138Z,99755.16
2023-05-22T22:37:11.218Z,99711.22
2023-05-22T22:39:54.992Z,99734.78
2023-05-22T22:42:38.852Z,99745.69
2023-05-22T22:45:22.781Z,99703.13
2023-05-22T22:48:08.084Z,99736.63
2023-05-22T22:50:52.577Z,99721.75
2023-05-22T22:53:36.481Z,99725.13
2023-05-22T22:56:20.410Z,99715.72
2023-05-22T22:59:04.340Z,99730.50
2023-05-22T23:01:48.437Z,99708.47
2023-05-22T23:04:33.902Z,99722.19
2023-05-22T23:07:17.891Z,99723.69
2023-05-22T23:10:01.786Z,99722.47
2023-05-22T23:12:50.140Z,99730.44
2023-05-22T23:15:34.846Z,99722.47
2023-05-22T23:18:19.004Z,99714.47
2023-05-22T23:21:04.194Z,99706.59
2023-05-22T23:23:48.017Z,99718.34
2023-05-22T23:26:32.060Z,99698.63
2023-05-22T23:29:16.336Z,99711.09
2023-05-22T23:32:00.303Z,99711.94
2023-05-22T23:34:44.522Z,99692.16
2023-05-22T23:37:29.759Z,99698.03
2023-05-22T23:40:14.332Z,99688.31
2023-05-22T23:42:58.215Z,99683.84
2023-05-22T23:45:42.342Z,99687.66
2023-05-22T23:48:26.433Z,99677.28
2023-05-22T23:51:14.466Z,99672.50
2023-05-22T23:54:00.029Z,99666.69
2023-05-22T23:56:44.015Z,99690.88
2023-05-22T23:59:27.838Z,99678.75
